sensor_id;sensor_type;location;lat;lon;timestamp;P1;durP1;ratioP1;P2;durP2;ratioP2
7829;SDS011;3960;51.86894000;5.39848000;2023-03-01T00:01:08;10.70;;;6.68;;
7829;SDS011;3960;51.86894000;5.39848000;2023-03-01T00:03:35;10.30;;;6.03;;
7829;SDS011;3960;51.86894000;5.39848000;2023-03-01T00:06:02;10.30;;;5.88;;
7829;SDS011;3960;51.86894000;5.39848000;2023-03-01T00:08:28;13.32;;;6.30;;
7829;SDS011;3960;51.86894000;5.39848000;2023-03-01T00:11:05;8.32;;;5.68;;
7829;SDS011;3960;51.86894000;5.39848000;2023-03-01T00:13:31;7.95;;;5.70;;
7829;SDS011;3960;51.86894000;5.39848000;2023-03-01T00:15:57;8.60;;;5.93;;
7829;SDS011;3960;51.86894000;5.39848000;2023-03-01T00:18:22;14.75;;;6.30;;
7829;SDS011;3960;51.86894000;5.39848000;2023-03-01T00:20:51;9.43;;;6.18;;
7829;SDS011;3960;51.86894000;5.39848000;2023-03-01T00:23:20;10.25;;;5.93;;
7829;SDS011;3960;51.86894000;5.39848000;2023-03-01T00:25:47;8.90;;;6.10;;
7829;SDS011;3960;51.86894000;5.39848000;2023-03-01T00:28:13;11.35;;;6.00;;
7829;SDS011;3960;51.86894000;5.39848000;2023-03-01T00:30:39;9.13;;;5.97;;
7829;SDS011;3960;51.86894000;5.39848000;2023-03-01T00:33:04;7.95;;;5.85;;
7829;SDS011;3960;51.86894000;5.39848000;2023-03-01T00:35:29;10.02;;;5.75;;
7829;SDS011;3960;51.86894000;5.39848000;2023-03-01T00:37:57;10.10;;;6.13;;
7829;SDS011;3960;51.86894000;5.39848000;2023-03-01T00:40:26;10.02;;;5.65;;
7829;SDS011;3960;51.86894000;5.39848000;2023-03-01T00:42:53;11.55;;;6.10;;
7829;SDS011;3960;51.86894000;5.39848000;2023-03-01T00:45:18;9.93;;;5.82;;
7829;SDS011;3960;51.86894000;5.39848000;2023-03-01T00:47:43;10.52;;;6.18;;
7829;SDS011;3960;51.86894000;5.39848000;2023-03-01T00:50:09;10.93;;;6.05;;
7829;SDS011;3960;51.86894000;5.39848000;2023-03-01T00:52:35;8.77;;;6.18;;
7829;SDS011;3960;51.86894000;5.39848000;2023-03-01T00:55:00;10.40;;;6.28;;
7829;SDS011;3960;51.86894000;5.39848000;2023-03-01T00:57:26;9.57;;;5.97;;
7829;SDS011;3960;51.86894000;5.39848000;2023-03-01T00:59:51;11.27;;;5.82;;
7829;SDS011;3960;51.86894000;5.39848000;2023-03-01T01:02:19;11.35;;;6.40;;
7829;SDS011;3960;51.86894000;5.39848000;2023-03-01T01:04:45;12.10;;;6.10;;
7829;SDS011;3960;51.86894000;5.39848000;2023-03-01T01:07:10;11.52;;;6.82;;
7829;SDS011;3960;51.86894000;5.39848000;2023-03-01T01:09:36;9.68;;;6.35;;
7829;SDS011;3960;51.86894000;5.39848000;2023-03-01T01:12:02;10.73;;;6.32;;
7829;SDS011;3960;51.86894000;5.39848000;2023-03-01T01:14:28;8.10;;;5.88;;
7829;SDS011;3960;51.86894000;5.39848000;2023-03-01T01:16:53;13.00;;;6.50;;
7829;SDS011;3960;51.86894000;5.39848000;2023-03-01T01:19:18;10.85;;;6.22;;
7829;SDS011;3960;51.86894000;5.39848000;2023-03-01T01:21:44;8.50;;;5.88;;
7829;SDS011;3960;51.86894000;5.39848000;2023-03-01T01:24:09;10.02;;;6.47;;
7829;SDS011;3960;51.86894000;5.39848000;2023-03-01T01:26:35;8.60;;;6.00;;
7829;SDS011;3960;51.86894000;5.39848000;2023-03-01T01:29:02;11.35;;;5.93;;
7829;SDS011;3960;51.86894000;5.39848000;2023-03-01T01:31:29;9.25;;;6.32;;
7829;SDS011;3960;51.86894000;5.39848000;2023-03-01T01:33:54;9.65;;;5.82;;
7829;SDS011;3960;51.86894000;5.39848000;2023-03-01T01:36:21;11.60;;;6.53;;
7829;SDS011;3960;51.86894000;5.39848000;2023-03-01T01:38:46;10.38;;;6.60;;
7829;SDS011;3960;51.86894000;5.39848000;2023-03-01T01:41:12;11.70;;;6.55;;
7829;SDS011;3960;51.86894000;5.39848000;2023-03-01T01:43:46;8.57;;;5.90;;
7829;SDS011;3960;51.86894000;5.39848000;2023-03-01T01:46:20;10.35;;;6.18;;
7829;SDS011;3960;51.86894000;5.39848000;2023-03-01T01:48:54;8.77;;;5.93;;
7829;SDS011;3960;51.86894000;5.39848000;2023-03-01T01:51:24;11.30;;;6.75;;
7829;SDS011;3960;51.86894000;5.39848000;2023-03-01T01:53:57;13.90;;;6.47;;
7829;SDS011;3960;51.86894000;5.39848000;2023-03-01T01:56:25;10.80;;;6.75;;
7829;SDS011;3960;51.86894000;5.39848000;2023-03-01T01:58:53;11.18;;;6.13;;
7829;SDS011;3960;51.86894000;5.39848000;2023-03-01T02:01:20;8.38;;;6.10;;
7829;SDS011;3960;51.86894000;5.39848000;2023-03-01T02:03:45;9.63;;;5.60;;
7829;SDS011;3960;51.86894000;5.39848000;2023-03-01T02:06:12;9.45;;;6.22;;
7829;SDS011;3960;51.86894000;5.39848000;2023-03-01T02:08:44;10.60;;;6.10;;
7829;SDS011;3960;51.86894000;5.39848000;2023-03-01T02:11:11;9.27;;;5.95;;
7829;SDS011;3960;51.86894000;5.39848000;2023-03-01T02:13:39;10.77;;;6.55;;
7829;SDS011;3960;51.86894000;5.39848000;2023-03-01T02:16:08;10.23;;;6.43;;
7829;SDS011;3960;51.86894000;5.39848000;2023-03-01T02:18:35;9.68;;;6.20;;
7829;SDS011;3960;51.86894000;5.39848000;2023-03-01T02:23:59;10.18;;;6.00;;
7829;SDS011;3960;51.86894000;5.39848000;2023-03-01T02:26:40;9.77;;;6.03;;
7829;SDS011;3960;51.86894000;5.39848000;2023-03-01T02:29:07;9.98;;;5.95;;
7829;SDS011;3960;51.86894000;5.39848000;2023-03-01T02:31:33;11.02;;;5.82;;
7829;SDS011;3960;51.86894000;5.39848000;2023-03-01T02:36:48;13.50;;;6.35;;
7829;SDS011;3960;51.86894000;5.39848000;2023-03-01T02:39:20;9.90;;;6.45;;
7829;SDS011;3960;51.86894000;5.39848000;2023-03-01T02:41:51;8.57;;;5.97;;
7829;SDS011;3960;51.86894000;5.39848000;2023-03-01T02:44:18;9.75;;;6.03;;
7829;SDS011;3960;51.86894000;5.39848000;2023-03-01T02:46:45;8.90;;;5.88;;
7829;SDS011;3960;51.86894000;5.39848000;2023-03-01T02:49:23;11.65;;;6.40;;
7829;SDS011;3960;51.86894000;5.39848000;2023-03-01T02:54:47;9.02;;;5.70;;
7829;SDS011;3960;51.86894000;5.39848000;2023-03-01T02:57:16;12.00;;;6.28;;
7829;SDS011;3960;51.86894000;5.39848000;2023-03-01T02:59:43;13.80;;;6.30;;
7829;SDS011;3960;51.86894000;5.39848000;2023-03-01T03:02:22;9.02;;;6.13;;
7829;SDS011;3960;51.86894000;5.39848000;2023-03-01T03:05:22;12.00;;;6.72;;
7829;SDS011;3960;51.86894000;5.39848000;2023-03-01T03:07:48;9.18;;;6.03;;
7829;SDS011;3960;51.86894000;5.39848000;2023-03-01T03:10:17;8.00;;;5.60;;
7829;SDS011;3960;51.86894000;5.39848000;2023-03-01T03:12:53;10.20;;;6.07;;
7829;SDS011;3960;51.86894000;5.39848000;2023-03-01T03:15:23;8.45;;;5.93;;
7829;SDS011;3960;51.86894000;5.39848000;2023-03-01T03:17:50;10.27;;;6.10;;
7829;SDS011;3960;51.86894000;5.39848000;2023-03-01T03:20:17;8.48;;;5.35;;
7829;SDS011;3960;51.86894000;5.39848000;2023-03-01T03:22:46;10.52;;;5.38;;
7829;SDS011;3960;51.86894000;5.39848000;2023-03-01T03:25:12;9.20;;;5.72;;
7829;SDS011;3960;51.86894000;5.39848000;2023-03-01T03:27:38;9.90;;;6.25;;
7829;SDS011;3960;51.86894000;5.39848000;2023-03-01T03:30:04;9.25;;;6.30;;
7829;SDS011;3960;51.86894000;5.39848000;2023-03-01T03:32:37;11.30;;;5.93;;
7829;SDS011;3960;51.86894000;5.39848000;2023-03-01T03:35:06;9.73;;;5.88;;
7829;SDS011;3960;51.86894000;5.39848000;2023-03-01T03:37:35;9.70;;;5.75;;
7829;SDS011;3960;51.86894000;5.39848000;2023-03-01T03:40:23;10.32;;;5.82;;
7829;SDS011;3960;51.86894000;5.39848000;2023-03-01T03:42:49;12.13;;;5.80;;
7829;SDS011;3960;51.86894000;5.39848000;2023-03-01T03:45:17;11.10;;;6.13;;
7829;SDS011;3960;51.86894000;5.39848000;2023-03-01T03:47:43;12.20;;;6.78;;
7829;SDS011;3960;51.86894000;5.39848000;2023-03-01T03:50:09;10.43;;;6.30;;
7829;SDS011;3960;51.86894000;5.39848000;2023-03-01T03:52:36;9.85;;;5.78;;
7829;SDS011;3960;51.86894000;5.39848000;2023-03-01T03:55:01;9.02;;;6.30;;
7829;SDS011;3960;51.86894000;5.39848000;2023-03-01T03:57:27;9.07;;;5.95;;
7829;SDS011;3960;51.86894000;5.39848000;2023-03-01T03:59:52;10.30;;;6.25;;
7829;SDS011;3960;51.86894000;5.39848000;2023-03-01T04:02:17;10.00;;;6.05;;
7829;SDS011;3960;51.86894000;5.39848000;2023-03-01T04:04:47;9.25;;;5.50;;
7829;SDS011;3960;51.86894000;5.39848000;2023-03-01T04:07:15;10.32;;;6.18;;
7829;SDS011;3960;51.86894000;5.39848000;2023-03-01T04:09:41;9.55;;;5.38;;
7829;SDS011;3960;51.86894000;5.39848000;2023-03-01T04:12:07;10.07;;;5.93;;
7829;SDS011;3960;51.86894000;5.39848000;2023-03-01T04:14:33;13.50;;;6.10;;
7829;SDS011;3960;51.86894000;5.39848000;2023-03-01T04:16:58;9.73;;;6.28;;
7829;SDS011;3960;51.86894000;5.39848000;2023-03-01T04:19:23;11.07;;;6.00;;
7829;SDS011;3960;51.86894000;5.39848000;2023-03-01T04:21:49;9.85;;;6.07;;
7829;SDS011;3960;51.86894000;5.39848000;2023-03-01T04:24:14;10.73;;;6.10;;
7829;SDS011;3960;51.86894000;5.39848000;2023-03-01T04:26:40;10.00;;;6.18;;
7829;SDS011;3960;51.86894000;5.39848000;2023-03-01T04:29:05;9.45;;;6.05;;
7829;SDS011;3960;51.86894000;5.39848000;2023-03-01T04:31:31;9.80;;;5.78;;
7829;SDS011;3960;51.86894000;5.39848000;2023-03-01T04:33:56;7.05;;;5.13;;
7829;SDS011;3960;51.86894000;5.39848000;2023-03-01T04:36:23;10.65;;;5.53;;
7829;SDS011;3960;51.86894000;5.39848000;2023-03-01T04:38:50;9.35;;;6.25;;
7829;SDS011;3960;51.86894000;5.39848000;2023-03-01T04:41:18;8.05;;;5.63;;
7829;SDS011;3960;51.86894000;5.39848000;2023-03-01T04:43:45;9.98;;;5.50;;
7829;SDS011;3960;51.86894000;5.39848000;2023-03-01T04:46:11;8.40;;;5.75;;
7829;SDS011;3960;51.86894000;5.39848000;2023-03-01T04:48:38;9.93;;;5.40;;
7829;SDS011;3960;51.86894000;5.39848000;2023-03-01T04:51:05;9.63;;;5.22;;
7829;SDS011;3960;51.86894000;5.39848000;2023-03-01T04:53:32;8.40;;;5.60;;
7829;SDS011;3960;51.86894000;5.39848000;2023-03-01T04:55:58;10.32;;;5.60;;
7829;SDS011;3960;51.86894000;5.39848000;2023-03-01T04:58:24;10.70;;;5.93;;
7829;SDS011;3960;51.86894000;5.39848000;2023-03-01T05:00:51;10.48;;;6.00;;
7829;SDS011;3960;51.86894000;5.39848000;2023-03-01T05:03:17;11.02;;;6.47;;
7829;SDS011;3960;51.86894000;5.39848000;2023-03-01T05:05:43;9.18;;;5.63;;
7829;SDS011;3960;51.86894000;5.39848000;2023-03-01T05:08:10;10.98;;;6.03;;
7829;SDS011;3960;51.86894000;5.39848000;2023-03-01T05:10:43;8.23;;;5.63;;
7829;SDS011;3960;51.86894000;5.39848000;2023-03-01T05:13:14;10.98;;;6.00;;
7829;SDS011;3960;51.86894000;5.39848000;2023-03-01T05:15:45;8.23;;;5.53;;
7829;SDS011;3960;51.86894000;5.39848000;2023-03-01T05:18:18;8.95;;;5.90;;
7829;SDS011;3960;51.86894000;5.39848000;2023-03-01T05:20:44;7.05;;;4.88;;
7829;SDS011;3960;51.86894000;5.39848000;2023-03-01T05:23:09;10.32;;;6.10;;
7829;SDS011;3960;51.86894000;5.39848000;2023-03-01T05:25:34;8.27;;;5.28;;
7829;SDS011;3960;51.86894000;5.39848000;2023-03-01T05:28:04;11.02;;;5.53;;
7829;SDS011;3960;51.86894000;5.39848000;2023-03-01T05:30:32;9.00;;;6.03;;
7829;SDS011;3960;51.86894000;5.39848000;2023-03-01T05:32:58;8.85;;;5.53;;
7829;SDS011;3960;51.86894000;5.39848000;2023-03-01T05:35:24;8.63;;;5.53;;
7829;SDS011;3960;51.86894000;5.39848000;2023-03-01T05:37:50;9.75;;;5.40;;
7829;SDS011;3960;51.86894000;5.39848000;2023-03-01T05:40:19;10.02;;;5.07;;
7829;SDS011;3960;51.86894000;5.39848000;2023-03-01T05:42:47;8.35;;;5.40;;
7829;SDS011;3960;51.86894000;5.39848000;2023-03-01T05:45:14;9.00;;;5.47;;
7829;SDS011;3960;51.86894000;5.39848000;2023-03-01T05:47:41;11.05;;;5.95;;
7829;SDS011;3960;51.86894000;5.39848000;2023-03-01T05:50:12;11.32;;;5.90;;
7829;SDS011;3960;51.86894000;5.39848000;2023-03-01T05:52:44;10.98;;;6.07;;
7829;SDS011;3960;51.86894000;5.39848000;2023-03-01T05:55:14;10.85;;;5.90;;
7829;SDS011;3960;51.86894000;5.39848000;2023-03-01T05:57:43;10.05;;;6.00;;
7829;SDS011;3960;51.86894000;5.39848000;2023-03-01T06:00:09;10.55;;;6.03;;
7829;SDS011;3960;51.86894000;5.39848000;2023-03-01T06:02:35;13.27;;;6.72;;
7829;SDS011;3960;51.86894000;5.39848000;2023-03-01T06:05:01;14.70;;;5.88;;
7829;SDS011;3960;51.86894000;5.39848000;2023-03-01T06:07:27;12.75;;;6.03;;
7829;SDS011;3960;51.86894000;5.39848000;2023-03-01T06:09:52;9.65;;;6.20;;
7829;SDS011;3960;51.86894000;5.39848000;2023-03-01T06:12:18;10.27;;;5.28;;
7829;SDS011;3960;51.86894000;5.39848000;2023-03-01T06:14:44;9.60;;;5.38;;
7829;SDS011;3960;51.86894000;5.39848000;2023-03-01T06:17:10;10.85;;;6.20;;
7829;SDS011;3960;51.86894000;5.39848000;2023-03-01T06:19:35;8.90;;;5.80;;
7829;SDS011;3960;51.86894000;5.39848000;2023-03-01T06:22:01;11.48;;;5.82;;
7829;SDS011;3960;51.86894000;5.39848000;2023-03-01T06:24:26;9.57;;;5.78;;
7829;SDS011;3960;51.86894000;5.39848000;2023-03-01T06:26:53;10.18;;;5.70;;
7829;SDS011;3960;51.86894000;5.39848000;2023-03-01T06:29:19;11.10;;;5.78;;
7829;SDS011;3960;51.86894000;5.39848000;2023-03-01T06:31:44;10.55;;;5.80;;
7829;SDS011;3960;51.86894000;5.39848000;2023-03-01T06:34:10;7.95;;;5.57;;
7829;SDS011;3960;51.86894000;5.39848000;2023-03-01T06:36:38;17.08;;;6.20;;
7829;SDS011;3960;51.86894000;5.39848000;2023-03-01T06:39:03;12.27;;;5.88;;
7829;SDS011;3960;51.86894000;5.39848000;2023-03-01T06:41:30;11.63;;;6.05;;
7829;SDS011;3960;51.86894000;5.39848000;2023-03-01T06:43:56;9.45;;;5.70;;
7829;SDS011;3960;51.86894000;5.39848000;2023-03-01T06:46:21;9.38;;;5.88;;
7829;SDS011;3960;51.86894000;5.39848000;2023-03-01T06:48:46;10.85;;;5.93;;
7829;SDS011;3960;51.86894000;5.39848000;2023-03-01T06:51:12;7.97;;;5.28;;
7829;SDS011;3960;51.86894000;5.39848000;2023-03-01T06:53:37;10.48;;;5.63;;
7829;SDS011;3960;51.86894000;5.39848000;2023-03-01T06:56:02;12.73;;;5.80;;
7829;SDS011;3960;51.86894000;5.39848000;2023-03-01T06:58:28;8.30;;;5.50;;
7829;SDS011;3960;51.86894000;5.39848000;2023-03-01T07:00:53;9.90;;;5.90;;
7829;SDS011;3960;51.86894000;5.39848000;2023-03-01T07:03:19;12.57;;;6.32;;
7829;SDS011;3960;51.86894000;5.39848000;2023-03-01T07:05:44;12.20;;;6.65;;
7829;SDS011;3960;51.86894000;5.39848000;2023-03-01T07:08:09;10.07;;;5.47;;
7829;SDS011;3960;51.86894000;5.39848000;2023-03-01T07:10:35;10.23;;;5.70;;
7829;SDS011;3960;51.86894000;5.39848000;2023-03-01T07:13:00;9.77;;;6.10;;
7829;SDS011;3960;51.86894000;5.39848000;2023-03-01T07:15:26;11.15;;;6.45;;
7829;SDS011;3960;51.86894000;5.39848000;2023-03-01T07:17:52;11.88;;;6.15;;
7829;SDS011;3960;51.86894000;5.39848000;2023-03-01T07:20:18;7.85;;;5.47;;
7829;SDS011;3960;51.86894000;5.39848000;2023-03-01T07:22:44;8.77;;;5.50;;
7829;SDS011;3960;51.86894000;5.39848000;2023-03-01T07:25:09;12.40;;;5.43;;
7829;SDS011;3960;51.86894000;5.39848000;2023-03-01T07:27:35;8.10;;;4.88;;
7829;SDS011;3960;51.86894000;5.39848000;2023-03-01T07:30:01;7.93;;;5.13;;
7829;SDS011;3960;51.86894000;5.39848000;2023-03-01T07:32:27;10.07;;;5.20;;
7829;SDS011;3960;51.86894000;5.39848000;2023-03-01T07:34:52;9.15;;;5.10;;
7829;SDS011;3960;51.86894000;5.39848000;2023-03-01T07:37:17;7.93;;;4.80;;
7829;SDS011;3960;51.86894000;5.39848000;2023-03-01T07:39:43;10.23;;;4.85;;
7829;SDS011;3960;51.86894000;5.39848000;2023-03-01T07:42:08;6.55;;;4.60;;
7829;SDS011;3960;51.86894000;5.39848000;2023-03-01T07:44:33;9.07;;;4.60;;
7829;SDS011;3960;51.86894000;5.39848000;2023-03-01T07:47:02;7.00;;;4.57;;
7829;SDS011;3960;51.86894000;5.39848000;2023-03-01T07:49:28;10.38;;;5.03;;
7829;SDS011;3960;51.86894000;5.39848000;2023-03-01T07:51:53;8.82;;;4.93;;
7829;SDS011;3960;51.86894000;5.39848000;2023-03-01T07:54:19;5.28;;;3.78;;
7829;SDS011;3960;51.86894000;5.39848000;2023-03-01T07:56:44;12.43;;;4.80;;
7829;SDS011;3960;51.86894000;5.39848000;2023-03-01T07:59:10;8.25;;;4.60;;
7829;SDS011;3960;51.86894000;5.39848000;2023-03-01T08:01:35;7.63;;;4.53;;
7829;SDS011;3960;51.86894000;5.39848000;2023-03-01T08:04:00;7.90;;;4.68;;
7829;SDS011;3960;51.86894000;5.39848000;2023-03-01T08:06:26;5.85;;;4.05;;
7829;SDS011;3960;51.86894000;5.39848000;2023-03-01T08:08:52;6.80;;;4.18;;
7829;SDS011;3960;51.86894000;5.39848000;2023-03-01T08:11:17;7.20;;;4.30;;
7829;SDS011;3960;51.86894000;5.39848000;2023-03-01T08:13:42;9.13;;;4.50;;
7829;SDS011;3960;51.86894000;5.39848000;2023-03-01T08:16:12;7.47;;;4.00;;
7829;SDS011;3960;51.86894000;5.39848000;2023-03-01T08:18:39;8.30;;;4.63;;
7829;SDS011;3960;51.86894000;5.39848000;2023-03-01T08:21:06;10.48;;;4.88;;
7829;SDS011;3960;51.86894000;5.39848000;2023-03-01T08:23:32;8.25;;;4.57;;
7829;SDS011;3960;51.86894000;5.39848000;2023-03-01T08:26:09;6.88;;;4.30;;
7829;SDS011;3960;51.86894000;5.39848000;2023-03-01T08:28:34;9.60;;;4.60;;
7829;SDS011;3960;51.86894000;5.39848000;2023-03-01T08:31:00;7.95;;;4.80;;
7829;SDS011;3960;51.86894000;5.39848000;2023-03-01T08:33:26;14.20;;;4.80;;
7829;SDS011;3960;51.86894000;5.39848000;2023-03-01T08:35:51;8.90;;;4.35;;
7829;SDS011;3960;51.86894000;5.39848000;2023-03-01T08:38:16;8.88;;;4.43;;
7829;SDS011;3960;51.86894000;5.39848000;2023-03-01T08:40:42;6.78;;;4.38;;
7829;SDS011;3960;51.86894000;5.39848000;2023-03-01T08:43:07;8.02;;;4.43;;
7829;SDS011;3960;51.86894000;5.39848000;2023-03-01T08:45:32;7.63;;;4.55;;
7829;SDS011;3960;51.86894000;5.39848000;2023-03-01T08:47:58;6.97;;;4.13;;
7829;SDS011;3960;51.86894000;5.39848000;2023-03-01T08:50:23;8.43;;;4.40;;
7829;SDS011;3960;51.86894000;5.39848000;2023-03-01T08:52:49;7.57;;;4.40;;
7829;SDS011;3960;51.86894000;5.39848000;2023-03-01T08:55:15;5.80;;;4.15;;
7829;SDS011;3960;51.86894000;5.39848000;2023-03-01T08:57:42;15.10;;;4.80;;
7829;SDS011;3960;51.86894000;5.39848000;2023-03-01T09:00:07;7.65;;;4.00;;
7829;SDS011;3960;51.86894000;5.39848000;2023-03-01T09:02:33;6.10;;;4.03;;
7829;SDS011;3960;51.86894000;5.39848000;2023-03-01T09:04:59;6.43;;;4.38;;
7829;SDS011;3960;51.86894000;5.39848000;2023-03-01T09:07:25;6.82;;;4.43;;
7829;SDS011;3960;51.86894000;5.39848000;2023-03-01T09:09:53;8.10;;;4.00;;
7829;SDS011;3960;51.86894000;5.39848000;2023-03-01T09:12:19;7.68;;;4.38;;
7829;SDS011;3960;51.86894000;5.39848000;2023-03-01T09:14:44;8.02;;;5.20;;
7829;SDS011;3960;51.86894000;5.39848000;2023-03-01T09:17:09;8.52;;;5.18;;
7829;SDS011;3960;51.86894000;5.39848000;2023-03-01T09:19:35;8.93;;;4.88;;
7829;SDS011;3960;51.86894000;5.39848000;2023-03-01T09:22:00;7.78;;;4.28;;
7829;SDS011;3960;51.86894000;5.39848000;2023-03-01T09:24:25;7.75;;;4.50;;
7829;SDS011;3960;51.86894000;5.39848000;2023-03-01T09:26:52;8.60;;;4.80;;
7829;SDS011;3960;51.86894000;5.39848000;2023-03-01T09:29:20;7.55;;;3.97;;
7829;SDS011;3960;51.86894000;5.39848000;2023-03-01T09:31:46;7.22;;;4.35;;
7829;SDS011;3960;51.86894000;5.39848000;2023-03-01T09:34:11;13.73;;;4.15;;
7829;SDS011;3960;51.86894000;5.39848000;2023-03-01T09:36:38;6.95;;;4.57;;
7829;SDS011;3960;51.86894000;5.39848000;2023-03-01T09:39:04;6.32;;;3.33;;
7829;SDS011;3960;51.86894000;5.39848000;2023-03-01T09:46:58;6.75;;;3.95;;
7829;SDS011;3960;51.86894000;5.39848000;2023-03-01T09:49:25;5.88;;;3.20;;
7829;SDS011;3960;51.86894000;5.39848000;2023-03-01T09:54:52;6.72;;;4.05;;
7829;SDS011;3960;51.86894000;5.39848000;2023-03-01T09:57:21;8.82;;;3.63;;
7829;SDS011;3960;51.86894000;5.39848000;2023-03-01T10:02:38;8.87;;;4.10;;
7829;SDS011;3960;51.86894000;5.39848000;2023-03-01T10:05:26;5.05;;;2.90;;
7829;SDS011;3960;51.86894000;5.39848000;2023-03-01T10:10:34;7.90;;;4.00;;
7829;SDS011;3960;51.86894000;5.39848000;2023-03-01T10:13:04;5.90;;;3.45;;
7829;SDS011;3960;51.86894000;5.39848000;2023-03-01T10:15:47;4.90;;;3.30;;
7829;SDS011;3960;51.86894000;5.39848000;2023-03-01T10:18:21;6.88;;;3.67;;
7829;SDS011;3960;51.86894000;5.39848000;2023-03-01T10:21:00;7.70;;;4.18;;
7829;SDS011;3960;51.86894000;5.39848000;2023-03-01T10:23:29;7.05;;;4.13;;
7829;SDS011;3960;51.86894000;5.39848000;2023-03-01T10:26:12;6.18;;;4.03;;
7829;SDS011;3960;51.86894000;5.39848000;2023-03-01T10:31:37;8.82;;;3.72;;
7829;SDS011;3960;51.86894000;5.39848000;2023-03-01T10:34:18;6.43;;;4.15;;
7829;SDS011;3960;51.86894000;5.39848000;2023-03-01T10:36:44;6.88;;;3.72;;
7829;SDS011;3960;51.86894000;5.39848000;2023-03-01T10:41:51;6.75;;;4.40;;
7829;SDS011;3960;51.86894000;5.39848000;2023-03-01T10:47:04;6.75;;;4.50;;
7829;SDS011;3960;51.86894000;5.39848000;2023-03-01T10:49:36;6.63;;;4.43;;
7829;SDS011;3960;51.86894000;5.39848000;2023-03-01T10:52:11;4.82;;;3.65;;
7829;SDS011;3960;51.86894000;5.39848000;2023-03-01T10:54:50;6.53;;;4.68;;
7829;SDS011;3960;51.86894000;5.39848000;2023-03-01T10:57:29;7.65;;;4.95;;
7829;SDS011;3960;51.86894000;5.39848000;2023-03-01T11:00:01;8.52;;;5.15;;
7829;SDS011;3960;51.86894000;5.39848000;2023-03-01T11:02:45;9.40;;;4.75;;
7829;SDS011;3960;51.86894000;5.39848000;2023-03-01T11:05:16;7.38;;;4.68;;
7829;SDS011;3960;51.86894000;5.39848000;2023-03-01T11:10:25;8.00;;;4.80;;
7829;SDS011;3960;51.86894000;5.39848000;2023-03-01T11:12:53;8.02;;;4.78;;
7829;SDS011;3960;51.86894000;5.39848000;2023-03-01T11:15:30;7.13;;;4.60;;
7829;SDS011;3960;51.86894000;5.39848000;2023-03-01T11:17:55;6.72;;;4.43;;
7829;SDS011;3960;51.86894000;5.39848000;2023-03-01T11:20:26;9.80;;;5.05;;
7829;SDS011;3960;51.86894000;5.39848000;2023-03-01T11:23:03;8.50;;;4.22;;
7829;SDS011;3960;51.86894000;5.39848000;2023-03-01T11:25:37;7.57;;;4.78;;
7829;SDS011;3960;51.86894000;5.39848000;2023-03-01T11:30:38;9.15;;;4.65;;
7829;SDS011;3960;51.86894000;5.39848000;2023-03-01T11:33:31;8.50;;;4.80;;
7829;SDS011;3960;51.86894000;5.39848000;2023-03-01T11:38:54;5.95;;;4.28;;
7829;SDS011;3960;51.86894000;5.39848000;2023-03-01T11:41:21;6.07;;;4.13;;
7829;SDS011;3960;51.86894000;5.39848000;2023-03-01T11:46:32;5.65;;;3.90;;
7829;SDS011;3960;51.86894000;5.39848000;2023-03-01T11:51:42;6.60;;;4.53;;
7829;SDS011;3960;51.86894000;5.39848000;2023-03-01T11:54:19;6.85;;;4.63;;
7829;SDS011;3960;51.86894000;5.39848000;2023-03-01T11:56:57;7.30;;;4.35;;
7829;SDS011;3960;51.86894000;5.39848000;2023-03-01T11:59:44;5.80;;;3.88;;
7829;SDS011;3960;51.86894000;5.39848000;2023-03-01T12:27:26;7.05;;;4.75;;
7829;SDS011;3960;51.86894000;5.39848000;2023-03-01T12:30:27;7.40;;;4.70;;
7829;SDS011;3960;51.86894000;5.39848000;2023-03-01T12:38:56;7.30;;;3.75;;
7829;SDS011;3960;51.86894000;5.39848000;2023-03-01T12:44:46;6.60;;;3.83;;
7829;SDS011;3960;51.86894000;5.39848000;2023-03-01T12:52:41;9.95;;;4.93;;
7829;SDS011;3960;51.86894000;5.39848000;2023-03-01T12:57:56;5.75;;;4.28;;
7829;SDS011;3960;51.86894000;5.39848000;2023-03-01T13:09:32;6.25;;;3.38;;
7829;SDS011;3960;51.86894000;5.39848000;2023-03-01T13:12:52;5.72;;;3.88;;
7829;SDS011;3960;51.86894000;5.39848000;2023-03-01T13:17:47;7.88;;;4.03;;
7829;SDS011;3960;51.86894000;5.39848000;2023-03-01T13:20:15;7.70;;;4.28;;
7829;SDS011;3960;51.86894000;5.39848000;2023-03-01T13:22:42;4.70;;;3.05;;
7829;SDS011;3960;51.86894000;5.39848000;2023-03-01T13:25:17;5.50;;;3.65;;
7829;SDS011;3960;51.86894000;5.39848000;2023-03-01T13:27:45;8.32;;;3.97;;
7829;SDS011;3960;51.86894000;5.39848000;2023-03-01T13:30:38;9.43;;;4.15;;
7829;SDS011;3960;51.86894000;5.39848000;2023-03-01T13:35:53;7.75;;;4.32;;
7829;SDS011;3960;51.86894000;5.39848000;2023-03-01T13:44:13;6.78;;;4.13;;
7829;SDS011;3960;51.86894000;5.39848000;2023-03-01T13:49:43;6.15;;;3.72;;
7829;SDS011;3960;51.86894000;5.39848000;2023-03-01T13:54:49;5.13;;;3.67;;
7829;SDS011;3960;51.86894000;5.39848000;2023-03-01T13:57:18;6.70;;;4.10;;
7829;SDS011;3960;51.86894000;5.39848000;2023-03-01T13:59:47;5.50;;;3.90;;
7829;SDS011;3960;51.86894000;5.39848000;2023-03-01T14:02:13;6.32;;;4.30;;
7829;SDS011;3960;51.86894000;5.39848000;2023-03-01T14:04:38;6.72;;;4.60;;
7829;SDS011;3960;51.86894000;5.39848000;2023-03-01T14:07:19;10.25;;;4.57;;
7829;SDS011;3960;51.86894000;5.39848000;2023-03-01T14:09:54;6.18;;;3.83;;
7829;SDS011;3960;51.86894000;5.39848000;2023-03-01T14:17:52;8.65;;;4.25;;
7829;SDS011;3960;51.86894000;5.39848000;2023-03-01T14:20:24;8.80;;;3.70;;
7829;SDS011;3960;51.86894000;5.39848000;2023-03-01T14:22:52;7.80;;;4.43;;
7829;SDS011;3960;51.86894000;5.39848000;2023-03-01T14:28:04;6.82;;;3.97;;
7829;SDS011;3960;51.86894000;5.39848000;2023-03-01T14:30:44;10.75;;;4.20;;
7829;SDS011;3960;51.86894000;5.39848000;2023-03-01T14:35:55;10.73;;;4.20;;
7829;SDS011;3960;51.86894000;5.39848000;2023-03-01T14:41:05;7.20;;;4.07;;
7829;SDS011;3960;51.86894000;5.39848000;2023-03-01T14:43:33;5.50;;;3.75;;
7829;SDS011;3960;51.86894000;5.39848000;2023-03-01T14:45:59;5.30;;;3.88;;
7829;SDS011;3960;51.86894000;5.39848000;2023-03-01T14:48:26;5.88;;;3.75;;
7829;SDS011;3960;51.86894000;5.39848000;2023-03-01T14:50:52;5.68;;;3.72;;
7829;SDS011;3960;51.86894000;5.39848000;2023-03-01T14:53:21;6.32;;;3.88;;
7829;SDS011;3960;51.86894000;5.39848000;2023-03-01T14:55:53;5.53;;;3.65;;
7829;SDS011;3960;51.86894000;5.39848000;2023-03-01T14:58:21;5.97;;;3.92;;
7829;SDS011;3960;51.86894000;5.39848000;2023-03-01T15:00:55;7.43;;;4.25;;
7829;SDS011;3960;51.86894000;5.39848000;2023-03-01T15:03:36;6.82;;;3.88;;
7829;SDS011;3960;51.86894000;5.39848000;2023-03-01T15:06:05;11.27;;;3.83;;
7829;SDS011;3960;51.86894000;5.39848000;2023-03-01T15:08:32;7.55;;;4.85;;
7829;SDS011;3960;51.86894000;5.39848000;2023-03-01T15:11:00;7.13;;;4.22;;
7829;SDS011;3960;51.86894000;5.39848000;2023-03-01T15:13:31;10.55;;;4.10;;
7829;SDS011;3960;51.86894000;5.39848000;2023-03-01T15:16:14;6.22;;;4.10;;
7829;SDS011;3960;51.86894000;5.39848000;2023-03-01T15:18:45;5.78;;;3.90;;
7829;SDS011;3960;51.86894000;5.39848000;2023-03-01T15:23:40;8.35;;;4.55;;